sensor_id;sensor_type;location;lat;lon;timestamp;pressure;altitude;pressure_sealevel;temperature;humidity
3780;BME280;1905;52.482;9.802;2023-01-30T00:01:28;100896.00;;;3.73;89.37
3780;BME280;1905;52.482;9.802;2023-01-30T00:03:56;100877.72;;;3.73;88.96
3780;BME280;1905;52.482;9.802;2023-01-30T00:06:26;100873.41;;;3.72;89.02
3780;BME280;1905;52.482;9.802;2023-01-30T00:08:53;100855.94;;;3.74;89.28
3780;BME280;1905;52.482;9.802;2023-01-30T00:11:21;100882.03;;;3.77;89.27
3780;BME280;1905;52.482;9.802;2023-01-30T00:13:50;100862.81;;;3.81;89.10
3780;BME280;1905;52.482;9.802;2023-01-30T00:16:18;100848.09;;;3.77;88.25
3780;BME280;1905;52.482;9.802;2023-01-30T00:18:45;100855.88;;;3.80;89.00
3780;BME280;1905;52.482;9.802;2023-01-30T00:21:14;100866.31;;;3.80;88.97
3780;BME280;1905;52.482;9.802;2023-01-30T00:23:44;100875.03;;;3.79;88.95
3780;BME280;1905;52.482;9.802;2023-01-30T00:26:12;100876.69;;;3.83;88.48
3780;BME280;1905;52.482;9.802;2023-01-30T00:28:40;100874.16;;;3.80;88.23
3780;BME280;1905;52.482;9.802;2023-01-30T00:31:08;100888.94;;;3.81;89.08
3780;BME280;1905;52.482;9.802;2023-01-30T00:33:36;100881.94;;;3.83;88.92
3780;BME280;1905;52.482;9.802;2023-01-30T00:36:05;100880.25;;;3.79;88.91
3780;BME280;1905;52.482;9.802;2023-01-30T00:38:33;100862.78;;;3.86;88.92
3780;BME280;1905;52.482;9.802;2023-01-30T00:41:03;100860.97;;;3.89;88.80
3780;BME280;1905;52.482;9.802;2023-01-30T00:43:31;100836.53;;;3.93;88.52
3780;BME280;1905;52.482;9.802;2023-01-30T00:46:22;100838.31;;;3.91;88.45
3780;BME280;1905;52.482;9.802;2023-01-30T00:49:09;100834.78;;;3.92;88.78
3780;BME280;1905;52.482;9.802;2023-01-30T00:51:37;100836.56;;;3.90;89.61
3780;BME280;1905;52.482;9.802;2023-01-30T00:54:04;100827.88;;;3.91;89.86
3780;BME280;1905;52.482;9.802;2023-01-30T00:56:33;100816.50;;;3.92;89.90
3780;BME280;1905;52.482;9.802;2023-01-30T00:59:02;100808.63;;;3.95;89.69
3780;BME280;1905;52.482;9.802;2023-01-30T01:01:29;100805.16;;;3.96;89.62
3780;BME280;1905;52.482;9.802;2023-01-30T01:03:57;100804.22;;;3.99;89.96
3780;BME280;1905;52.482;9.802;2023-01-30T01:06:25;100792.09;;;3.96;90.57
3780;BME280;1905;52.482;9.802;2023-01-30T01:08:53;100792.91;;;3.98;90.29
3780;BME280;1905;52.482;9.802;2023-01-30T01:11:21;100798.13;;;3.98;90.32
3780;BME280;1905;52.482;9.802;2023-01-30T01:13:55;100782.47;;;3.97;90.41
3780;BME280;1905;52.482;9.802;2023-01-30T01:16:23;100753.72;;;3.98;91.02
3780;BME280;1905;52.482;9.802;2023-01-30T01:18:52;100739.88;;;3.92;91.29
3780;BME280;1905;52.482;9.802;2023-01-30T01:21:20;100747.69;;;3.96;91.70
3780;BME280;1905;52.482;9.802;2023-01-30T01:23:49;100737.19;;;3.99;91.01
3780;BME280;1905;52.482;9.802;2023-01-30T01:26:17;100736.38;;;3.94;91.85
3780;BME280;1905;52.482;9.802;2023-01-30T01:28:45;100727.56;;;4.01;91.19
3780;BME280;1905;52.482;9.802;2023-01-30T01:31:15;100708.38;;;4.02;92.25
3780;BME280;1905;52.482;9.802;2023-01-30T01:33:43;100696.22;;;4.00;92.10
3780;BME280;1905;52.482;9.802;2023-01-30T01:36:11;100685.75;;;4.01;91.45
3780;BME280;1905;52.482;9.802;2023-01-30T01:38:59;100690.97;;;4.01;92.38
3780;BME280;1905;52.482;9.802;2023-01-30T01:41:28;100674.47;;;3.99;92.68
3780;BME280;1905;52.482;9.802;2023-01-30T01:43:59;100667.41;;;4.04;92.68
3780;BME280;1905;52.482;9.802;2023-01-30T01:46:31;100680.44;;;4.06;92.44
3780;BME280;1905;52.482;9.802;2023-01-30T01:49:02;100669.06;;;4.08;91.76
3780;BME280;1905;52.482;9.802;2023-01-30T01:51:34;100665.63;;;4.06;91.98
3780;BME280;1905;52.482;9.802;2023-01-30T01:54:09;100659.50;;;4.09;91.49
3780;BME280;1905;52.482;9.802;2023-01-30T01:56:42;100662.91;;;4.12;92.16
3780;BME280;1905;52.482;9.802;2023-01-30T01:59:16;100660.31;;;4.12;91.95
3780;BME280;1905;52.482;9.802;2023-01-30T02:01:48;100674.19;;;4.14;92.28
3780;BME280;1905;52.482;9.802;2023-01-30T02:04:19;100648.06;;;4.14;92.28
3780;BME280;1905;52.482;9.802;2023-01-30T02:07:12;100648.94;;;4.13;92.55
3780;BME280;1905;52.482;9.802;2023-01-30T02:09:41;100657.66;;;4.14;92.96
3780;BME280;1905;52.482;9.802;2023-01-30T02:12:09;100656.78;;;4.15;92.86
3780;BME280;1905;52.482;9.802;2023-01-30T02:14:38;100661.19;;;4.13;92.82
3780;BME280;1905;52.482;9.802;2023-01-30T02:17:08;100647.97;;;4.20;92.83
3780;BME280;1905;52.482;9.802;2023-01-30T02:19:46;100629.56;;;4.25;92.17
3780;BME280;1905;52.482;9.802;2023-01-30T02:22:35;100625.16;;;4.29;92.06
3780;BME280;1905;52.482;9.802;2023-01-30T02:25:39;100613.06;;;4.23;92.79
3780;BME280;1905;52.482;9.802;2023-01-30T02:31:26;100613.84;;;4.28;92.09
3780;BME280;1905;52.482;9.802;2023-01-30T02:34:16;100612.09;;;4.29;92.89
3780;BME280;1905;52.482;9.802;2023-01-30T02:37:00;100605.06;;;4.31;92.68
3780;BME280;1905;52.482;9.802;2023-01-30T02:39:36;100607.69;;;4.31;93.06
3780;BME280;1905;52.482;9.802;2023-01-30T02:42:10;100588.50;;;4.32;92.66
3780;BME280;1905;52.482;9.802;2023-01-30T02:44:46;100584.06;;;4.37;92.65
3780;BME280;1905;52.482;9.802;2023-01-30T02:47:24;100590.97;;;4.39;92.49
3780;BME280;1905;52.482;9.802;2023-01-30T02:49:57;100577.84;;;4.42;92.19
3780;BME280;1905;52.482;9.802;2023-01-30T02:52:28;100570.88;;;4.43;93.38
3780;BME280;1905;52.482;9.802;2023-01-30T02:54:57;100565.69;;;4.40;93.52
3780;BME280;1905;52.482;9.802;2023-01-30T02:57:25;100570.78;;;4.46;92.76
3780;BME280;1905;52.482;9.802;2023-01-30T03:00:00;100555.09;;;4.46;92.77
3780;BME280;1905;52.482;9.802;2023-01-30T03:02:48;100547.22;;;4.47;93.81
3780;BME280;1905;52.482;9.802;2023-01-30T03:05:27;100544.56;;;4.49;93.37
3780;BME280;1905;52.482;9.802;2023-01-30T03:08:07;100543.56;;;4.54;93.20
3780;BME280;1905;52.482;9.802;2023-01-30T03:10:44;100537.50;;;4.54;93.05
3780;BME280;1905;52.482;9.802;2023-01-30T03:13:19;100538.28;;;4.57;93.34
3780;BME280;1905;52.482;9.802;2023-01-30T03:15:55;100527.81;;;4.57;94.05
3780;BME280;1905;52.482;9.802;2023-01-30T03:18:27;100511.22;;;4.60;93.86
3780;BME280;1905;52.482;9.802;2023-01-30T03:20:55;100525.19;;;4.59;93.72
3780;BME280;1905;52.482;9.802;2023-01-30T03:23:23;100514.66;;;4.62;93.83
3780;BME280;1905;52.482;9.802;2023-01-30T03:25:50;100517.19;;;4.65;94.50
3780;BME280;1905;52.482;9.802;2023-01-30T03:28:19;100504.97;;;4.67;93.89
3780;BME280;1905;52.482;9.802;2023-01-30T03:30:48;100501.47;;;4.66;94.09
3780;BME280;1905;52.482;9.802;2023-01-30T03:33:16;100505.78;;;4.69;94.46
3780;BME280;1905;52.482;9.802;2023-01-30T03:35:48;100508.34;;;4.72;93.98
3780;BME280;1905;52.482;9.802;2023-01-30T03:38:16;100495.25;;;4.72;94.83
3780;BME280;1905;52.482;9.802;2023-01-30T03:40:45;100491.72;;;4.74;94.43
3780;BME280;1905;52.482;9.802;2023-01-30T03:43:13;100491.66;;;4.76;94.70
3780;BME280;1905;52.482;9.802;2023-01-30T03:45:41;100480.38;;;4.74;94.83
3780;BME280;1905;52.482;9.802;2023-01-30T03:48:08;100470.72;;;4.76;95.09
3780;BME280;1905;52.482;9.802;2023-01-30T03:50:36;100477.63;;;4.80;95.08
3780;BME280;1905;52.482;9.802;2023-01-30T03:53:05;100467.16;;;4.80;95.09
3780;BME280;1905;52.482;9.802;2023-01-30T03:55:33;100469.72;;;4.83;94.69
3780;BME280;1905;52.482;9.802;2023-01-30T03:58:01;100456.56;;;4.86;94.29
3780;BME280;1905;52.482;9.802;2023-01-30T04:00:31;100453.06;;;4.86;94.61
3780;BME280;1905;52.482;9.802;2023-01-30T04:03:00;100477.41;;;4.89;95.29
3780;BME280;1905;52.482;9.802;2023-01-30T04:05:27;100455.63;;;4.87;94.80
3780;BME280;1905;52.482;9.802;2023-01-30T04:08:01;100460.00;;;4.88;95.04
3780;BME280;1905;52.482;9.802;2023-01-30T04:10:30;100451.25;;;4.89;95.68
3780;BME280;1905;52.482;9.802;2023-01-30T04:12:58;100439.84;;;4.92;95.48
3780;BME280;1905;52.482;9.802;2023-01-30T04:15:25;100440.63;;;4.95;94.80
3780;BME280;1905;52.482;9.802;2023-01-30T04:18:22;100437.25;;;4.92;95.34
3780;BME280;1905;52.482;9.802;2023-01-30T04:20:57;100430.16;;;4.95;95.43
3780;BME280;1905;52.482;9.802;2023-01-30T04:23:33;100431.06;;;4.94;95.56
3780;BME280;1905;52.482;9.802;2023-01-30T04:26:03;100429.22;;;4.98;95.77
3780;BME280;1905;52.482;9.802;2023-01-30T04:28:35;100418.72;;;4.99;95.79
3780;BME280;1905;52.482;9.802;2023-01-30T04:31:03;100429.13;;;5.02;95.84
3780;BME280;1905;52.482;9.802;2023-01-30T04:33:43;100416.91;;;5.03;95.65
3780;BME280;1905;52.482;9.802;2023-01-30T04:36:11;100422.97;;;5.03;96.45
3780;BME280;1905;52.482;9.802;2023-01-30T04:38:40;100422.22;;;5.00;96.20
3780;BME280;1905;52.482;9.802;2023-01-30T04:41:09;100433.50;;;5.02;97.01
3780;BME280;1905;52.482;9.802;2023-01-30T04:43:39;100421.22;;;5.04;96.14
3780;BME280;1905;52.482;9.802;2023-01-30T04:46:16;100429.03;;;5.05;96.24
3780;BME280;1905;52.482;9.802;2023-01-30T04:48:44;100418.53;;;5.07;95.90
3780;BME280;1905;52.482;9.802;2023-01-30T04:51:11;100412.31;;;5.11;96.01
3780;BME280;1905;52.482;9.802;2023-01-30T04:53:39;100403.63;;;5.09;96.29
3780;BME280;1905;52.482;9.802;2023-01-30T04:56:08;100401.81;;;5.12;96.64
3780;BME280;1905;52.482;9.802;2023-01-30T04:58:36;100393.97;;;5.12;96.74
3780;BME280;1905;52.482;9.802;2023-01-30T05:01:12;100405.22;;;5.14;96.49
3780;BME280;1905;52.482;9.802;2023-01-30T05:03:41;100396.41;;;5.18;96.03
3780;BME280;1905;52.482;9.802;2023-01-30T05:06:09;100395.47;;;5.21;96.70
3780;BME280;1905;52.482;9.802;2023-01-30T05:08:36;100391.94;;;5.22;95.71
3780;BME280;1905;52.482;9.802;2023-01-30T05:11:05;100385.88;;;5.21;96.85
3780;BME280;1905;52.482;9.802;2023-01-30T05:13:33;100391.94;;;5.22;96.42
3780;BME280;1905;52.482;9.802;2023-01-30T05:16:01;100395.41;;;5.24;95.90
3780;BME280;1905;52.482;9.802;2023-01-30T05:18:29;100391.88;;;5.25;96.85
3780;BME280;1905;52.482;9.802;2023-01-30T05:21:02;100383.91;;;5.29;96.42
3780;BME280;1905;52.482;9.802;2023-01-30T05:23:30;100370.75;;;5.32;96.20
3780;BME280;1905;52.482;9.802;2023-01-30T05:25:57;100368.13;;;5.32;96.85
3780;BME280;1905;52.482;9.802;2023-01-30T05:28:25;100368.00;;;5.35;96.13
3780;BME280;1905;52.482;9.802;2023-01-30T05:30:54;100376.63;;;5.40;96.80
3780;BME280;1905;52.482;9.802;2023-01-30T05:33:22;100387.16;;;5.37;96.88
3780;BME280;1905;52.482;9.802;2023-01-30T05:35:50;100369.66;;;5.39;96.15
3780;BME280;1905;52.482;9.802;2023-01-30T05:38:17;100376.63;;;5.40;96.03
3780;BME280;1905;52.482;9.802;2023-01-30T05:40:45;100396.63;;;5.43;96.74
3780;BME280;1905;52.482;9.802;2023-01-30T05:43:12;100386.16;;;5.43;96.54
3780;BME280;1905;52.482;9.802;2023-01-30T05:45:40;100381.66;;;5.47;96.61
3780;BME280;1905;52.482;9.802;2023-01-30T05:48:09;100382.53;;;5.47;97.36
3780;BME280;1905;52.482;9.802;2023-01-30T05:50:36;100386.06;;;5.46;97.00
3780;BME280;1905;52.482;9.802;2023-01-30T05:53:04;100371.03;;;5.53;96.17
3780;BME280;1905;52.482;9.802;2023-01-30T05:55:32;100360.47;;;5.56;96.51
3780;BME280;1905;52.482;9.802;2023-01-30T05:57:59;100358.84;;;5.52;97.05
3780;BME280;1905;52.482;9.802;2023-01-30T06:00:27;100355.31;;;5.53;97.20
3780;BME280;1905;52.482;9.802;2023-01-30T06:02:55;100346.47;;;5.57;97.21
3780;BME280;1905;52.482;9.802;2023-01-30T06:05:24;100350.78;;;5.58;96.86
3780;BME280;1905;52.482;9.802;2023-01-30T06:07:51;100358.47;;;5.64;96.92
3780;BME280;1905;52.482;9.802;2023-01-30T06:10:19;100356.66;;;5.66;96.54
3780;BME280;1905;52.482;9.802;2023-01-30T06:12:46;100369.97;;;5.60;96.76
3780;BME280;1905;52.482;9.802;2023-01-30T06:15:14;100367.16;;;5.66;96.29
3780;BME280;1905;52.482;9.802;2023-01-30T06:17:42;100350.53;;;5.67;96.78
3780;BME280;1905;52.482;9.802;2023-01-30T06:20:11;100354.78;;;5.71;96.30
3780;BME280;1905;52.482;9.802;2023-01-30T06:22:40;100360.13;;;5.68;96.85
3780;BME280;1905;52.482;9.802;2023-01-30T06:25:07;100373.09;;;5.72;96.83
3780;BME280;1905;52.482;9.802;2023-01-30T06:27:35;100370.50;;;5.71;96.57
3780;BME280;1905;52.482;9.802;2023-01-30T06:30:04;100384.50;;;5.70;96.46
3780;BME280;1905;52.482;9.802;2023-01-30T06:32:31;100374.84;;;5.72;96.26
3780;BME280;1905;52.482;9.802;2023-01-30T06:34:59;100367.06;;;5.69;96.80
3780;BME280;1905;52.482;9.802;2023-01-30T06:37:26;100388.88;;;5.69;96.54
3780;BME280;1905;52.482;9.802;2023-01-30T06:39:55;100397.63;;;5.68;96.56
3780;BME280;1905;52.482;9.802;2023-01-30T06:42:22;100389.78;;;5.68;96.31
3780;BME280;1905;52.482;9.802;2023-01-30T06:44:50;100393.25;;;5.69;96.05
3780;BME280;1905;52.482;9.802;2023-01-30T06:47:17;100410.72;;;5.70;95.46
3780;BME280;1905;52.482;9.802;2023-01-30T06:49:45;100414.22;;;5.69;95.37
3780;BME280;1905;52.482;9.802;2023-01-30T06:52:14;100401.19;;;5.67;95.63
3780;BME280;1905;52.482;9.802;2023-01-30T06:54:41;100405.56;;;5.67;95.25
3780;BME280;1905;52.482;9.802;2023-01-30T06:57:10;100416.03;;;5.67;95.10
3780;BME280;1905;52.482;9.802;2023-01-30T06:59:38;100419.53;;;5.66;95.02
3780;BME280;1905;52.482;9.802;2023-01-30T07:02:06;100417.84;;;5.65;94.92
3780;BME280;1905;52.482;9.802;2023-01-30T07:04:33;100417.91;;;5.62;95.22
3780;BME280;1905;52.482;9.802;2023-01-30T07:07:01;100420.47;;;5.63;95.01
3780;BME280;1905;52.482;9.802;2023-01-30T07:09:28;100420.38;;;5.68;95.10
3780;BME280;1905;52.482;9.802;2023-01-30T07:11:56;100432.56;;;5.69;94.64
3780;BME280;1905;52.482;9.802;2023-01-30T07:14:25;100430.16;;;5.61;94.72
3780;BME280;1905;52.482;9.802;2023-01-30T07:16:52;100439.59;;;5.67;93.98
3780;BME280;1905;52.482;9.802;2023-01-30T07:19:20;100440.56;;;5.63;94.30
3780;BME280;1905;52.482;9.802;2023-01-30T07:21:47;100430.22;;;5.60;94.48
3780;BME280;1905;52.482;9.802;2023-01-30T07:24:15;100436.28;;;5.60;93.89
3780;BME280;1905;52.482;9.802;2023-01-30T07:26:42;100416.28;;;5.58;94.02
3780;BME280;1905;52.482;9.802;2023-01-30T07:29:10;100436.41;;;5.56;93.42
3780;BME280;1905;52.482;9.802;2023-01-30T07:31:38;100421.59;;;5.55;92.89
3780;BME280;1905;52.482;9.802;2023-01-30T07:34:06;100419.81;;;5.57;93.12
3780;BME280;1905;52.482;9.802;2023-01-30T07:36:34;100405.00;;;5.56;92.48
3780;BME280;1905;52.482;9.802;2023-01-30T07:39:03;100416.47;;;5.52;92.22
3780;BME280;1905;52.482;9.802;2023-01-30T07:41:30;100414.75;;;5.51;92.37
3780;BME280;1905;52.482;9.802;2023-01-30T07:43:59;100421.78;;;5.49;92.18
3780;BME280;1905;52.482;9.802;2023-01-30T07:46:26;100424.22;;;5.55;92.27
3780;BME280;1905;52.482;9.802;2023-01-30T07:49:01;100433.00;;;5.52;91.90
3780;BME280;1905;52.482;9.802;2023-01-30T07:51:29;100420.84;;;5.50;91.96
3780;BME280;1905;52.482;9.802;2023-01-30T07:53:59;100425.28;;;5.48;92.34
3780;BME280;1905;52.482;9.802;2023-01-30T07:56:27;100423.41;;;5.53;92.09
3780;BME280;1905;52.482;9.802;2023-01-30T07:58:55;100419.97;;;5.51;92.52
3780;BME280;1905;52.482;9.802;2023-01-30T08:01:23;100435.69;;;5.51;92.72
3780;BME280;1905;52.482;9.802;2023-01-30T08:03:53;100435.69;;;5.51;92.30
3780;BME280;1905;52.482;9.802;2023-01-30T08:06:22;100450.47;;;5.53;92.34
3780;BME280;1905;52.482;9.802;2023-01-30T08:08:50;100446.84;;;5.57;92.44
3780;BME280;1905;52.482;9.802;2023-01-30T08:11:17;100454.75;;;5.56;92.05
3780;BME280;1905;52.482;9.802;2023-01-30T08:13:45;100456.41;;;5.58;92.47
3780;BME280;1905;52.482;9.802;2023-01-30T08:16:12;100452.06;;;5.59;91.85
3780;BME280;1905;52.482;9.802;2023-01-30T08:18:40;100459.03;;;5.60;92.13
3780;BME280;1905;52.482;9.802;2023-01-30T08:21:09;100466.88;;;5.60;91.61
3780;BME280;1905;52.482;9.802;2023-01-30T08:23:40;100458.91;;;5.63;92.04
3780;BME280;1905;52.482;9.802;2023-01-30T08:26:07;100454.47;;;5.66;91.57
3780;BME280;1905;52.482;9.802;2023-01-30T08:28:35;100459.66;;;5.68;91.63
3780;BME280;1905;52.482;9.802;2023-01-30T08:31:08;100466.59;;;5.70;91.38
3780;BME280;1905;52.482;9.802;2023-01-30T08:33:36;100462.19;;;5.71;91.46
3780;BME280;1905;52.482;9.802;2023-01-30T08:36:04;100461.44;;;5.66;91.34
3780;BME280;1905;52.482;9.802;2023-01-30T08:38:32;100466.69;;;5.66;91.32
3780;BME280;1905;52.482;9.802;2023-01-30T08:41:03;100478.81;;;5.70;91.29
3780;BME280;1905;52.482;9.802;2023-01-30T08:43:32;100472.66;;;5.71;90.50
3780;BME280;1905;52.482;9.802;2023-01-30T08:45:59;100473.50;;;5.73;90.80
3780;BME280;1905;52.482;9.802;2023-01-30T08:48:27;100466.44;;;5.75;90.88
3780;BME280;1905;52.482;9.802;2023-01-30T08:51:05;100470.75;;;5.77;90.64
3780;BME280;1905;52.482;9.802;2023-01-30T08:53:33;100465.56;;;5.76;90.64
3780;BME280;1905;52.482;9.802;2023-01-30T08:56:02;100454.06;;;5.80;90.71
3780;BME280;1905;52.482;9.802;2023-01-30T08:58:30;100462.88;;;5.77;90.55
3780;BME280;1905;52.482;9.802;2023-01-30T09:00:57;100455.72;;;5.84;90.65
3780;BME280;1905;52.482;9.802;2023-01-30T09:03:25;100457.44;;;5.86;90.16
3780;BME280;1905;52.482;9.802;2023-01-30T09:05:53;100458.31;;;5.85;90.29
3780;BME280;1905;52.482;9.802;2023-01-30T09:08:21;100452.03;;;5.91;90.80
3780;BME280;1905;52.482;9.802;2023-01-30T09:10:48;100450.22;;;5.93;90.41
3780;BME280;1905;52.482;9.802;2023-01-30T09:13:17;100452.03;;;5.91;90.16
3780;BME280;1905;52.482;9.802;2023-01-30T09:15:45;100456.31;;;5.95;89.78
3780;BME280;1905;52.482;9.802;2023-01-30T09:18:12;100445.69;;;5.99;89.95
3780;BME280;1905;52.482;9.802;2023-01-30T09:20:40;100454.34;;;6.02;88.87
3780;BME280;1905;52.482;9.802;2023-01-30T09:23:07;100466.59;;;6.01;89.60
3780;BME280;1905;52.482;9.802;2023-01-30T09:25:35;100457.75;;;6.05;89.63
3780;BME280;1905;52.482;9.802;2023-01-30T09:28:03;100456.75;;;6.09;89.56
3780;BME280;1905;52.482;9.802;2023-01-30T09:30:32;100451.50;;;6.09;89.85
3780;BME280;1905;52.482;9.802;2023-01-30T09:33:00;100448.81;;;6.12;89.88
3780;BME280;1905;52.482;9.802;2023-01-30T09:35:27;100459.25;;;6.14;89.52
3780;BME280;1905;52.482;9.802;2023-01-30T09:37:55;100457.38;;;6.17;89.59
3780;BME280;1905;52.482;9.802;2023-01-30T09:40:26;100464.41;;;6.17;89.23
3780;BME280;1905;52.482;9.802;2023-01-30T09:43:13;100460.00;;;6.17;89.15
3780;BME280;1905;52.482;9.802;2023-01-30T09:45:56;100461.66;;;6.21;88.83
3780;BME280;1905;52.482;9.802;2023-01-30T09:48:28;100466.81;;;6.24;88.76
3780;BME280;1905;52.482;9.802;2023-01-30T09:51:10;100457.94;;;6.28;89.14
3780;BME280;1905;52.482;9.802;2023-01-30T09:53:58;100445.66;;;6.30;89.12
3780;BME280;1905;52.482;9.802;2023-01-30T09:56:30;100470.06;;;6.32;88.64
3780;BME280;1905;52.482;9.802;2023-01-30T09:59:00;100464.72;;;6.35;88.62
3780;BME280;1905;52.482;9.802;2023-01-30T10:01:39;100462.91;;;6.37;87.83
3780;BME280;1905;52.482;9.802;2023-01-30T10:04:14;100452.41;;;6.37;87.75
3780;BME280;1905;52.482;9.802;2023-01-30T10:06:52;100457.47;;;6.43;87.78
3780;BME280;1905;52.482;9.802;2023-01-30T10:09:28;100464.41;;;6.46;87.56
3780;BME280;1905;52.482;9.802;2023-01-30T10:12:12;100464.34;;;6.47;87.91
3780;BME280;1905;52.482;9.802;2023-01-30T10:14:54;100457.31;;;6.49;87.34
3780;BME280;1905;52.482;9.802;2023-01-30T10:17:41;100442.38;;;6.51;87.60
3780;BME280;1905;52.482;9.802;2023-01-30T10:20:22;100438.78;;;6.54;86.34
3780;BME280;1905;52.482;9.802;2023-01-30T10:22:59;100429.06;;;6.57;87.31
3780;BME280;1905;52.482;9.802;2023-01-30T10:25:33;100445.63;;;6.58;86.62
3780;BME280;1905;52.482;9.802;2023-01-30T10:28:10;100443.88;;;6.58;86.67
3780;BME280;1905;52.482;9.802;2023-01-30T10:30:38;100444.59;;;6.64;86.39
3780;BME280;1905;52.482;9.802;2023-01-30T10:33:16;100439.34;;;6.64;86.71
3780;BME280;1905;52.482;9.802;2023-01-30T10:35:52;100428.75;;;6.67;87.27
3780;BME280;1905;52.482;9.802;2023-01-30T10:38:27;100427.75;;;6.71;86.65
3780;BME280;1905;52.482;9.802;2023-01-30T10:41:03;100419.66;;;6.77;86.53
3780;BME280;1905;52.482;9.802;2023-01-30T10:43:35;100415.34;;;6.76;86.41
3780;BME280;1905;52.482;9.802;2023-01-30T10:46:17;100421.22;;;6.84;86.70
3780;BME280;1905;52.482;9.802;2023-01-30T10:48:55;100406.47;;;6.80;86.83
3780;BME280;1905;52.482;9.802;2023-01-30T10:51:32;100404.66;;;6.82;87.43
3780;BME280;1905;52.482;9.802;2023-01-30T10:54:09;100407.19;;;6.85;87.06
3780;BME280;1905;52.482;9.802;2023-01-30T10:56:44;100410.63;;;6.87;87.31
3780;BME280;1905;52.482;9.802;2023-01-30T10:59:29;100407.94;;;6.88;87.16
3780;BME280;1905;52.482;9.802;2023-01-30T11:02:09;100425.41;;;6.89;86.10
3780;BME280;1905;52.482;9.802;2023-01-30T11:04:45;100420.75;;;6.97;86.47
3780;BME280;1905;52.482;9.802;2023-01-30T11:07:14;100410.53;;;6.90;86.28
3780;BME280;1905;52.482;9.802;2023-01-30T11:09:43;100422.94;;;6.85;86.72
3780;BME280;1905;52.482;9.802;2023-01-30T11:12:12;100426.38;;;6.87;87.67
3780;BME280;1905;52.482;9.802;2023-01-30T11:14:54;100418.53;;;6.85;87.90
3780;BME280;1905;52.482;9.802;2023-01-30T11:17:32;100414.13;;;6.86;88.08
3780;BME280;1905;52.482;9.802;2023-01-30T11:20:08;100413.06;;;6.91;87.67
3780;BME280;1905;52.482;9.802;2023-01-30T11:22:46;100434.84;;;6.95;87.54
3780;BME280;1905;52.482;9.802;2023-01-30T11:25:16;100436.53;;;6.96;87.78
3780;BME280;1905;52.482;9.802;2023-01-30T11:27:52;100429.50;;;6.98;87.19
3780;BME280;1905;52.482;9.802;2023-01-30T11:30:20;100415.66;;;6.93;87.60
3780;BME280;1905;52.482;9.802;2023-01-30T11:32:48;100422.69;;;6.92;86.64
3780;BME280;1905;52.482;9.802;2023-01-30T11:35:25;100397.50;;;6.87;86.94
3780;BME280;1905;52.482;9.802;2023-01-30T11:37:53;100396.53;;;6.89;87.95
3780;BME280;1905;52.482;9.802;2023-01-30T11:40:24;100393.13;;;6.86;87.82
3780;BME280;1905;52.482;9.802;2023-01-30T11:43:00;100383.44;;;6.88;88.10
3780;BME280;1905;52.482;9.802;2023-01-30T11:45:29;100410.63;;;6.87;87.45
3780;BME280;1905;52.482;9.802;2023-01-30T11:48:03;100386.06;;;6.88;87.57
3780;BME280;1905;52.482;9.802;2023-01-30T11:50:41;100390.34;;;6.90;87.19
3780;BME280;1905;52.482;9.802;2023-01-30T11:53:25;100394.78;;;6.90;87.14
3780;BME280;1905;52.482;9.802;2023-01-30T11:55:56;100377.50;;;6.83;87.46
3780;BME280;1905;52.482;9.802;2023-01-30T11:58:34;100376.44;;;6.88;88.02
3780;BME280;1905;52.482;9.802;2023-01-30T12:01:02;100386.13;;;6.86;88.44
3780;BME280;1905;52.482;9.802;2023-01-30T12:03:31;100374.84;;;6.84;88.48
3780;BME280;1905;52.482;9.802;2023-01-30T12:06:01;100385.47;;;6.80;88.52
3780;BME280;1905;52.482;9.802;2023-01-30T12:08:35;100392.44;;;6.81;88.98
3780;BME280;1905;52.482;9.802;2023-01-30T12:11:24;100381.94;;;6.81;88.48
3780;BME280;1905;52.482;9.802;2023-01-30T12:13:52;100390.00;;;6.75;87.96
3780;BME280;1905;52.482;9.802;2023-01-30T12:16:24;100389.28;;;6.71;88.27
3780;BME280;1905;52.482;9.802;2023-01-30T12:19:02;100400.69;;;6.69;88.48
3780;BME280;1905;52.482;9.802;2023-01-30T12:21:41;100407.75;;;6.67;88.19
3780;BME280;1905;52.482;9.802;2023-01-30T12:24:18;100419.19;;;6.66;88.42
3780;BME280;1905;52.482;9.802;2023-01-30T12:26:51;100406.16;;;6.63;88.50
3780;BME280;1905;52.482;9.802;2023-01-30T12:29:26;100416.56;;;6.66;88.04
3780;BME280;1905;52.482;9.802;2023-01-30T12:32:03;100428.03;;;6.63;88.63
3780;BME280;1905;52.482;9.802;2023-01-30T12:34:31;100422.81;;;6.62;88.65
3780;BME280;1905;52.482;9.802;2023-01-30T12:37:07;100423.81;;;6.57;88.25
3780;BME280;1905;52.482;9.802;2023-01-30T12:39:48;100412.47;;;6.57;88.63
3780;BME280;1905;52.482;9.802;2023-01-30T12:45:24;100407.47;;;6.49;88.95
3780;BME280;1905;52.482;9.802;2023-01-30T12:48:22;100410.91;;;6.51;88.82
3780;BME280;1905;52.482;9.802;2023-01-30T12:51:04;100395.19;;;6.50;88.93
3780;BME280;1905;52.482;9.802;2023-01-30T12:53:46;100412.81;;;6.46;88.31
3780;BME280;1905;52.482;9.802;2023-01-30T12:56:32;100403.22;;;6.45;88.81
3780;BME280;1905;52.482;9.802;2023-01-30T12:59:10;100402.25;;;6.48;88.65
3780;BME280;1905;52.482;9.802;2023-01-30T13:01:48;100399.59;;;6.49;88.55
3780;BME280;1905;52.482;9.802;2023-01-30T13:04:35;100384.06;;;6.42;88.31
3780;BME280;1905;52.482;9.802;2023-01-30T13:07:31;100414.50;;;6.47;89.04
3780;BME280;1905;52.482;9.802;2023-01-30T13:10:12;100401.28;;;6.50;88.76
3780;BME280;1905;52.482;9.802;2023-01-30T13:12:50;100404.00;;;6.47;88.96
3780;BME280;1905;52.482;9.802;2023-01-30T13:15:29;100418.78;;;6.50;89.24
3780;BME280;1905;52.482;9.802;2023-01-30T13:18:06;100422.19;;;6.53;89.24
3780;BME280;1905;52.482;9.802;2023-01-30T13:20:47;100435.38;;;6.52;88.95
3780;BME280;1905;52.482;9.802;2023-01-30T13:23:17;100437.13;;;6.51;88.91
3780;BME280;1905;52.482;9.802;2023-01-30T13:25:56;100433.53;;;6.54;88.72
3780;BME280;1905;52.482;9.802;2023-01-30T13:28:27;100432.69;;;6.53;89.67
3780;BME280;1905;52.482;9.802;2023-01-30T13:30:59;100420.38;;;6.55;89.62
3780;BME280;1905;52.482;9.802;2023-01-30T13:33:31;100430.66;;;6.62;89.14
3780;BME280;1905;52.482;9.802;2023-01-30T13:36:08;100421.91;;;6.63;89.15
3780;BME280;1905;52.482;9.802;2023-01-30T13:38:47;100431.34;;;6.68;89.17
3780;BME280;1905;52.482;9.802;2023-01-30T13:41:24;100434.81;;;6.69;88.58
3780;BME280;1905;52.482;9.802;2023-01-30T13:44:14;100447.00;;;6.71;89.18
3780;BME280;1905;52.482;9.802;2023-01-30T13:46:43;100435.63;;;6.71;89.14
3780;BME280;1905;52.482;9.802;2023-01-30T13:49:18;100429.47;;;6.72;89.90
3780;BME280;1905;52.482;9.802;2023-01-30T13:51:51;100447.75;;;6.75;89.83
3780;BME280;1905;52.482;9.802;2023-01-30T13:54:40;100447.75;;;6.75;89.43